sensor_id;sensor_type;location;lat;lon;timestamp;P1;durP1;ratioP1;P2;durP2;ratioP2
69203;SDS011;56317;27.658;85.326;2022-09-16T00:00:36;20.67;;;8.35;;
69203;SDS011;56317;27.658;85.326;2022-09-16T00:03:08;19.85;;;8.43;;
69203;SDS011;56317;27.658;85.326;2022-09-16T00:05:45;18.58;;;7.78;;
69203;SDS011;56317;27.658;85.326;2022-09-16T00:08:14;14.60;;;6.60;;
69203;SDS011;56317;27.658;85.326;2022-09-16T00:10:43;16.85;;;7.55;;
69203;SDS011;56317;27.658;85.326;2022-09-16T00:13:13;16.27;;;8.32;;
69203;SDS011;56317;27.658;85.326;2022-09-16T00:15:41;24.83;;;8.27;;
69203;SDS011;56317;27.658;85.326;2022-09-16T00:18:13;16.52;;;7.97;;
69203;SDS011;56317;27.658;85.326;2022-09-16T00:20:44;22.02;;;8.18;;
69203;SDS011;56317;27.658;85.326;2022-09-16T00:23:15;19.17;;;8.80;;
69203;SDS011;56317;27.658;85.326;2022-09-16T00:25:42;20.00;;;8.80;;
69203;SDS011;56317;27.658;85.326;2022-09-16T00:28:10;22.33;;;8.68;;
69203;SDS011;56317;27.658;85.326;2022-09-16T00:30:37;16.50;;;8.25;;
69203;SDS011;56317;27.658;85.326;2022-09-16T00:33:04;30.30;;;9.30;;
69203;SDS011;56317;27.658;85.326;2022-09-16T00:35:31;34.50;;;12.05;;
69203;SDS011;56317;27.658;85.326;2022-09-16T00:37:58;38.30;;;11.27;;
69203;SDS011;56317;27.658;85.326;2022-09-16T00:40:25;25.38;;;9.32;;
69203;SDS011;56317;27.658;85.326;2022-09-16T00:42:52;16.20;;;8.90;;
69203;SDS011;56317;27.658;85.326;2022-09-16T00:45:20;31.38;;;11.68;;
69203;SDS011;56317;27.658;85.326;2022-09-16T00:47:50;38.08;;;13.15;;
69203;SDS011;56317;27.658;85.326;2022-09-16T00:52:56;47.00;;;13.68;;
69203;SDS011;56317;27.658;85.326;2022-09-16T00:55:27;39.92;;;12.82;;
69203;SDS011;56317;27.658;85.326;2022-09-16T00:58:01;28.33;;;10.88;;
69203;SDS011;56317;27.658;85.326;2022-09-16T01:00:35;19.33;;;9.75;;
69203;SDS011;56317;27.658;85.326;2022-09-16T01:03:03;23.00;;;11.30;;
69203;SDS011;56317;27.658;85.326;2022-09-16T01:05:31;18.02;;;10.52;;
69203;SDS011;56317;27.658;85.326;2022-09-16T01:07:58;21.95;;;11.55;;
69203;SDS011;56317;27.658;85.326;2022-09-16T01:10:26;21.20;;;12.30;;
69203;SDS011;56317;27.658;85.326;2022-09-16T01:12:57;21.80;;;11.00;;
69203;SDS011;56317;27.658;85.326;2022-09-16T01:15:36;15.77;;;10.15;;
69203;SDS011;56317;27.658;85.326;2022-09-16T01:18:18;15.32;;;8.18;;
69203;SDS011;56317;27.658;85.326;2022-09-16T01:20:55;16.77;;;9.90;;
69203;SDS011;56317;27.658;85.326;2022-09-16T01:29:54;12.80;;;8.02;;
69203;SDS011;56317;27.658;85.326;2022-09-16T01:35:49;10.45;;;6.47;;
69203;SDS011;56317;27.658;85.326;2022-09-16T01:43:27;9.48;;;6.20;;
69203;SDS011;56317;27.658;85.326;2022-09-16T01:54:32;9.55;;;6.18;;
69203;SDS011;56317;27.658;85.326;2022-09-16T01:57:01;12.20;;;5.53;;
69203;SDS011;56317;27.658;85.326;2022-09-16T01:59:54;11.40;;;6.07;;
69203;SDS011;56317;27.658;85.326;2022-09-16T02:02:28;11.65;;;7.03;;
69203;SDS011;56317;27.658;85.326;2022-09-16T02:05:23;18.58;;;7.88;;
69203;SDS011;56317;27.658;85.326;2022-09-16T02:08:02;12.87;;;6.50;;
69203;SDS011;56317;27.658;85.326;2022-09-16T02:10:42;24.33;;;7.53;;
69203;SDS011;56317;27.658;85.326;2022-09-16T02:13:21;15.70;;;7.18;;
69203;SDS011;56317;27.658;85.326;2022-09-16T02:15:53;22.25;;;8.77;;
69203;SDS011;56317;27.658;85.326;2022-09-16T02:18:26;18.27;;;8.15;;
69203;SDS011;56317;27.658;85.326;2022-09-16T02:20:58;31.25;;;8.02;;
69203;SDS011;56317;27.658;85.326;2022-09-16T02:23:30;58.20;;;12.10;;
69203;SDS011;56317;27.658;85.326;2022-09-16T02:26:01;14.27;;;7.60;;
69203;SDS011;56317;27.658;85.326;2022-09-16T02:28:34;18.60;;;7.13;;
69203;SDS011;56317;27.658;85.326;2022-09-16T02:31:06;16.67;;;6.28;;
69203;SDS011;56317;27.658;85.326;2022-09-16T02:33:39;38.58;;;8.45;;
69203;SDS011;56317;27.658;85.326;2022-09-16T02:36:21;26.27;;;7.20;;
69203;SDS011;56317;27.658;85.326;2022-09-16T02:38:52;42.72;;;9.30;;
69203;SDS011;56317;27.658;85.326;2022-09-16T02:41:26;40.03;;;8.30;;
69203;SDS011;56317;27.658;85.326;2022-09-16T02:43:53;43.05;;;8.68;;
69203;SDS011;56317;27.658;85.326;2022-09-16T02:46:23;46.15;;;9.52;;
69203;SDS011;56317;27.658;85.326;2022-09-16T02:49:01;16.98;;;5.22;;
69203;SDS011;56317;27.658;85.326;2022-09-16T02:54:33;17.83;;;5.80;;
69203;SDS011;56317;27.658;85.326;2022-09-16T02:57:19;42.72;;;8.88;;
69203;SDS011;56317;27.658;85.326;2022-09-16T02:59:47;25.85;;;7.03;;
69203;SDS011;56317;27.658;85.326;2022-09-16T03:02:15;23.20;;;7.30;;
69203;SDS011;56317;27.658;85.326;2022-09-16T03:04:45;30.98;;;9.32;;
69203;SDS011;56317;27.658;85.326;2022-09-16T03:07:13;12.80;;;6.20;;
69203;SDS011;56317;27.658;85.326;2022-09-16T03:09:42;17.30;;;5.97;;
69203;SDS011;56317;27.658;85.326;2022-09-16T03:12:22;23.95;;;6.80;;
69203;SDS011;56317;27.658;85.326;2022-09-16T03:15:09;13.95;;;6.47;;
69203;SDS011;56317;27.658;85.326;2022-09-16T03:26:21;14.13;;;6.55;;
69203;SDS011;56317;27.658;85.326;2022-09-16T03:31:57;11.75;;;5.93;;
69203;SDS011;56317;27.658;85.326;2022-09-16T03:34:29;19.20;;;6.28;;
69203;SDS011;56317;27.658;85.326;2022-09-16T03:37:20;12.88;;;6.65;;
69203;SDS011;56317;27.658;85.326;2022-09-16T03:39:52;14.98;;;6.32;;
69203;SDS011;56317;27.658;85.326;2022-09-16T03:42:22;16.60;;;6.20;;
69203;SDS011;56317;27.658;85.326;2022-09-16T03:44:50;11.13;;;6.47;;
69203;SDS011;56317;27.658;85.326;2022-09-16T03:47:18;22.60;;;9.75;;
69203;SDS011;56317;27.658;85.326;2022-09-16T03:49:45;14.48;;;8.93;;
69203;SDS011;56317;27.658;85.326;2022-09-16T03:52:12;21.40;;;9.20;;
69203;SDS011;56317;27.658;85.326;2022-09-16T03:54:43;24.60;;;13.35;;
69203;SDS011;56317;27.658;85.326;2022-09-16T03:57:10;23.48;;;11.65;;
69203;SDS011;56317;27.658;85.326;2022-09-16T03:59:37;19.52;;;12.60;;
69203;SDS011;56317;27.658;85.326;2022-09-16T04:02:05;17.75;;;12.98;;
69203;SDS011;56317;27.658;85.326;2022-09-16T04:04:33;23.58;;;12.88;;
69203;SDS011;56317;27.658;85.326;2022-09-16T04:07:00;22.20;;;13.70;;
69203;SDS011;56317;27.658;85.326;2022-09-16T04:09:27;22.30;;;13.48;;
69203;SDS011;56317;27.658;85.326;2022-09-16T04:11:54;20.27;;;14.02;;
69203;SDS011;56317;27.658;85.326;2022-09-16T04:14:21;20.67;;;14.75;;
69203;SDS011;56317;27.658;85.326;2022-09-16T04:16:48;26.83;;;15.15;;
69203;SDS011;56317;27.658;85.326;2022-09-16T04:19:16;21.95;;;15.65;;
69203;SDS011;56317;27.658;85.326;2022-09-16T04:21:43;26.33;;;15.00;;
69203;SDS011;56317;27.658;85.326;2022-09-16T04:24:10;27.73;;;15.57;;
69203;SDS011;56317;27.658;85.326;2022-09-16T04:26:37;21.73;;;15.63;;
69203;SDS011;56317;27.658;85.326;2022-09-16T04:29:05;28.27;;;15.82;;
69203;SDS011;56317;27.658;85.326;2022-09-16T04:31:32;21.83;;;14.48;;
69203;SDS011;56317;27.658;85.326;2022-09-16T04:34:01;21.10;;;13.73;;
69203;SDS011;56317;27.658;85.326;2022-09-16T04:36:28;27.13;;;16.77;;
69203;SDS011;56317;27.658;85.326;2022-09-16T04:38:57;24.45;;;15.82;;
69203;SDS011;56317;27.658;85.326;2022-09-16T04:41:24;24.73;;;16.48;;
69203;SDS011;56317;27.658;85.326;2022-09-16T04:43:56;27.23;;;14.98;;
69203;SDS011;56317;27.658;85.326;2022-09-16T04:46:25;22.10;;;14.27;;
69203;SDS011;56317;27.658;85.326;2022-09-16T04:48:54;21.55;;;14.43;;
69203;SDS011;56317;27.658;85.326;2022-09-16T04:51:22;25.00;;;15.40;;
69203;SDS011;56317;27.658;85.326;2022-09-16T04:56:21;25.40;;;16.00;;
69203;SDS011;56317;27.658;85.326;2022-09-16T04:58:51;28.02;;;17.73;;
69203;SDS011;56317;27.658;85.326;2022-09-16T05:01:21;27.73;;;19.13;;
69203;SDS011;56317;27.658;85.326;2022-09-16T05:03:53;28.50;;;17.83;;
69203;SDS011;56317;27.658;85.326;2022-09-16T05:06:24;27.45;;;17.63;;
69203;SDS011;56317;27.658;85.326;2022-09-16T05:08:52;26.40;;;16.15;;
69203;SDS011;56317;27.658;85.326;2022-09-16T05:11:22;22.92;;;13.80;;
69203;SDS011;56317;27.658;85.326;2022-09-16T05:13:52;20.55;;;13.32;;
69203;SDS011;56317;27.658;85.326;2022-09-16T05:16:20;20.73;;;12.82;;
69203;SDS011;56317;27.658;85.326;2022-09-16T05:18:49;19.45;;;13.05;;
69203;SDS011;56317;27.658;85.326;2022-09-16T05:21:20;17.38;;;12.98;;
69203;SDS011;56317;27.658;85.326;2022-09-16T05:23:48;17.02;;;11.93;;
69203;SDS011;56317;27.658;85.326;2022-09-16T05:26:19;18.08;;;12.18;;
69203;SDS011;56317;27.658;85.326;2022-09-16T05:28:48;19.85;;;13.07;;
69203;SDS011;56317;27.658;85.326;2022-09-16T05:31:19;21.27;;;12.68;;
69203;SDS011;56317;27.658;85.326;2022-09-16T05:33:59;18.88;;;13.65;;
69203;SDS011;56317;27.658;85.326;2022-09-16T05:36:28;16.08;;;11.20;;
69203;SDS011;56317;27.658;85.326;2022-09-16T05:38:58;15.73;;;11.07;;
69203;SDS011;56317;27.658;85.326;2022-09-16T05:41:25;21.33;;;13.60;;
69203;SDS011;56317;27.658;85.326;2022-09-16T05:43:52;17.30;;;12.63;;
69203;SDS011;56317;27.658;85.326;2022-09-16T05:46:29;16.73;;;10.95;;
69203;SDS011;56317;27.658;85.326;2022-09-16T05:48:58;15.98;;;10.63;;
69203;SDS011;56317;27.658;85.326;2022-09-16T05:51:25;14.25;;;10.52;;
69203;SDS011;56317;27.658;85.326;2022-09-16T05:53:53;15.43;;;10.48;;
69203;SDS011;56317;27.658;85.326;2022-09-16T05:56:22;14.82;;;10.15;;
69203;SDS011;56317;27.658;85.326;2022-09-16T05:58:55;16.60;;;11.35;;
69203;SDS011;56317;27.658;85.326;2022-09-16T06:01:26;15.48;;;9.63;;
69203;SDS011;56317;27.658;85.326;2022-09-16T06:03:59;14.32;;;9.40;;
69203;SDS011;56317;27.658;85.326;2022-09-16T06:06:31;14.10;;;8.75;;
69203;SDS011;56317;27.658;85.326;2022-09-16T06:09:04;14.45;;;8.60;;
69203;SDS011;56317;27.658;85.326;2022-09-16T06:11:34;9.38;;;7.07;;
69203;SDS011;56317;27.658;85.326;2022-09-16T06:14:03;10.27;;;7.80;;
69203;SDS011;56317;27.658;85.326;2022-09-16T06:16:31;10.85;;;7.25;;
69203;SDS011;56317;27.658;85.326;2022-09-16T06:18:59;12.00;;;8.55;;
69203;SDS011;56317;27.658;85.326;2022-09-16T06:21:28;12.50;;;8.85;;
69203;SDS011;56317;27.658;85.326;2022-09-16T06:23:55;12.18;;;8.48;;
69203;SDS011;56317;27.658;85.326;2022-09-16T06:26:23;11.57;;;8.27;;
69203;SDS011;56317;27.658;85.326;2022-09-16T06:28:52;13.32;;;9.32;;
69203;SDS011;56317;27.658;85.326;2022-09-16T06:31:23;11.23;;;7.45;;
69203;SDS011;56317;27.658;85.326;2022-09-16T06:33:52;10.25;;;7.07;;
69203;SDS011;56317;27.658;85.326;2022-09-16T06:36:21;17.63;;;8.55;;
69203;SDS011;56317;27.658;85.326;2022-09-16T06:38:50;12.18;;;7.35;;
69203;SDS011;56317;27.658;85.326;2022-09-16T06:41:18;17.67;;;8.57;;
69203;SDS011;56317;27.658;85.326;2022-09-16T06:43:46;17.15;;;8.95;;
69203;SDS011;56317;27.658;85.326;2022-09-16T06:46:20;16.60;;;8.80;;
69203;SDS011;56317;27.658;85.326;2022-09-16T06:48:54;21.98;;;7.88;;
69203;SDS011;56317;27.658;85.326;2022-09-16T06:51:23;15.63;;;7.93;;
69203;SDS011;56317;27.658;85.326;2022-09-16T06:53:53;10.03;;;6.60;;
69203;SDS011;56317;27.658;85.326;2022-09-16T06:56:24;11.30;;;6.68;;
69203;SDS011;56317;27.658;85.326;2022-09-16T06:58:51;10.68;;;6.80;;
69203;SDS011;56317;27.658;85.326;2022-09-16T07:01:21;9.38;;;5.97;;
69203;SDS011;56317;27.658;85.326;2022-09-16T07:03:50;10.45;;;6.35;;
69203;SDS011;56317;27.658;85.326;2022-09-16T07:06:19;8.95;;;5.97;;
69203;SDS011;56317;27.658;85.326;2022-09-16T07:08:47;8.88;;;5.03;;
69203;SDS011;56317;27.658;85.326;2022-09-16T07:11:16;12.60;;;6.18;;
69203;SDS011;56317;27.658;85.326;2022-09-16T07:13:45;10.13;;;5.80;;
69203;SDS011;56317;27.658;85.326;2022-09-16T07:16:14;8.98;;;5.43;;
69203;SDS011;56317;27.658;85.326;2022-09-16T07:18:43;6.50;;;4.45;;
69203;SDS011;56317;27.658;85.326;2022-09-16T07:21:13;7.60;;;3.55;;
69203;SDS011;56317;27.658;85.326;2022-09-16T07:23:43;5.47;;;2.75;;
69203;SDS011;56317;27.658;85.326;2022-09-16T07:26:15;12.50;;;3.13;;
69203;SDS011;56317;27.658;85.326;2022-09-16T07:28:48;12.20;;;3.50;;
69203;SDS011;56317;27.658;85.326;2022-09-16T07:31:17;6.68;;;3.65;;
69203;SDS011;56317;27.658;85.326;2022-09-16T07:33:48;8.13;;;4.28;;
69203;SDS011;56317;27.658;85.326;2022-09-16T07:36:17;6.53;;;3.77;;
69203;SDS011;56317;27.658;85.326;2022-09-16T07:38:49;8.32;;;4.75;;
69203;SDS011;56317;27.658;85.326;2022-09-16T07:41:21;11.73;;;4.05;;
69203;SDS011;56317;27.658;85.326;2022-09-16T07:43:50;9.05;;;4.82;;
69203;SDS011;56317;27.658;85.326;2022-09-16T07:46:19;7.10;;;3.80;;
69203;SDS011;56317;27.658;85.326;2022-09-16T07:48:47;11.40;;;4.30;;
69203;SDS011;56317;27.658;85.326;2022-09-16T07:51:15;9.32;;;3.80;;
69203;SDS011;56317;27.658;85.326;2022-09-16T07:53:47;9.82;;;3.72;;
69203;SDS011;56317;27.658;85.326;2022-09-16T07:56:19;10.80;;;4.28;;
69203;SDS011;56317;27.658;85.326;2022-09-16T07:58:48;10.07;;;3.70;;
69203;SDS011;56317;27.658;85.326;2022-09-16T08:01:15;4.88;;;3.00;;
69203;SDS011;56317;27.658;85.326;2022-09-16T08:03:43;6.15;;;3.00;;
69203;SDS011;56317;27.658;85.326;2022-09-16T08:06:12;9.05;;;3.80;;
69203;SDS011;56317;27.658;85.326;2022-09-16T08:08:42;7.07;;;4.75;;
69203;SDS011;56317;27.658;85.326;2022-09-16T08:11:09;6.65;;;4.80;;
69203;SDS011;56317;27.658;85.326;2022-09-16T08:13:39;11.87;;;5.93;;
69203;SDS011;56317;27.658;85.326;2022-09-16T08:16:12;13.63;;;4.38;;
69203;SDS011;56317;27.658;85.326;2022-09-16T08:18:40;10.15;;;4.20;;
69203;SDS011;56317;27.658;85.326;2022-09-16T08:21:09;6.15;;;3.63;;
69203;SDS011;56317;27.658;85.326;2022-09-16T08:23:38;5.65;;;2.97;;
69203;SDS011;56317;27.658;85.326;2022-09-16T08:26:06;6.22;;;3.20;;
69203;SDS011;56317;27.658;85.326;2022-09-16T08:28:38;7.13;;;3.17;;
69203;SDS011;56317;27.658;85.326;2022-09-16T08:31:07;8.10;;;2.92;;
69203;SDS011;56317;27.658;85.326;2022-09-16T08:33:37;7.30;;;3.00;;
69203;SDS011;56317;27.658;85.326;2022-09-16T08:36:12;12.00;;;3.42;;
69203;SDS011;56317;27.658;85.326;2022-09-16T08:38:42;10.77;;;3.28;;
69203;SDS011;56317;27.658;85.326;2022-09-16T08:44:15;5.82;;;2.83;;
69203;SDS011;56317;27.658;85.326;2022-09-16T08:47:08;7.28;;;3.20;;
69203;SDS011;56317;27.658;85.326;2022-09-16T08:49:57;11.45;;;3.42;;
69203;SDS011;56317;27.658;85.326;2022-09-16T08:52:29;7.30;;;3.35;;
69203;SDS011;56317;27.658;85.326;2022-09-16T08:55:22;9.93;;;3.72;;
69203;SDS011;56317;27.658;85.326;2022-09-16T08:58:19;6.70;;;3.20;;
69203;SDS011;56317;27.658;85.326;2022-09-16T09:00:48;13.18;;;3.55;;
69203;SDS011;56317;27.658;85.326;2022-09-16T09:03:38;11.38;;;5.07;;
69203;SDS011;56317;27.658;85.326;2022-09-16T09:06:30;11.73;;;4.60;;
69203;SDS011;56317;27.658;85.326;2022-09-16T09:11:58;11.55;;;5.38;;
69203;SDS011;56317;27.658;85.326;2022-09-16T09:14:45;15.48;;;6.15;;
69203;SDS011;56317;27.658;85.326;2022-09-16T09:17:32;9.68;;;4.50;;
69203;SDS011;56317;27.658;85.326;2022-09-16T09:31:56;12.20;;;5.03;;
69203;SDS011;56317;27.658;85.326;2022-09-16T09:34:31;14.07;;;5.63;;
69203;SDS011;56317;27.658;85.326;2022-09-16T09:37:26;16.52;;;6.38;;
69203;SDS011;56317;27.658;85.326;2022-09-16T09:45:16;11.73;;;5.15;;
69203;SDS011;56317;27.658;85.326;2022-09-16T09:50:35;17.13;;;6.82;;
69203;SDS011;56317;27.658;85.326;2022-09-16T09:56:25;14.73;;;6.13;;
69203;SDS011;56317;27.658;85.326;2022-09-16T10:01:45;15.05;;;6.60;;
69203;SDS011;56317;27.658;85.326;2022-09-16T10:04:18;10.73;;;6.05;;
69203;SDS011;56317;27.658;85.326;2022-09-16T10:06:45;17.42;;;7.60;;
69203;SDS011;56317;27.658;85.326;2022-09-16T10:09:14;14.70;;;6.18;;
69203;SDS011;56317;27.658;85.326;2022-09-16T10:11:48;17.10;;;7.70;;
69203;SDS011;56317;27.658;85.326;2022-09-16T10:14:21;20.95;;;8.35;;
69203;SDS011;56317;27.658;85.326;2022-09-16T10:16:55;12.57;;;6.47;;
69203;SDS011;56317;27.658;85.326;2022-09-16T10:19:27;10.93;;;5.78;;
69203;SDS011;56317;27.658;85.326;2022-09-16T10:22:10;12.25;;;6.28;;
69203;SDS011;56317;27.658;85.326;2022-09-16T10:24:59;20.02;;;6.95;;
69203;SDS011;56317;27.658;85.326;2022-09-16T10:27:32;18.73;;;6.40;;
69203;SDS011;56317;27.658;85.326;2022-09-16T10:30:17;23.98;;;7.72;;
69203;SDS011;56317;27.658;85.326;2022-09-16T10:32:51;18.73;;;6.30;;
69203;SDS011;56317;27.658;85.326;2022-09-16T10:35:32;14.50;;;6.95;;
69203;SDS011;56317;27.658;85.326;2022-09-16T10:38:03;20.70;;;7.75;;
69203;SDS011;56317;27.658;85.326;2022-09-16T10:40:35;15.00;;;7.30;;
69203;SDS011;56317;27.658;85.326;2022-09-16T10:43:03;13.50;;;7.00;;
69203;SDS011;56317;27.658;85.326;2022-09-16T10:45:46;19.42;;;6.57;;
69203;SDS011;56317;27.658;85.326;2022-09-16T10:48:15;16.88;;;7.78;;
69203;SDS011;56317;27.658;85.326;2022-09-16T10:50:56;14.07;;;7.90;;
69203;SDS011;56317;27.658;85.326;2022-09-16T10:55:58;13.63;;;6.97;;
69203;SDS011;56317;27.658;85.326;2022-09-16T10:58:29;12.18;;;6.95;;
69203;SDS011;56317;27.658;85.326;2022-09-16T11:01:02;16.08;;;9.02;;
69203;SDS011;56317;27.658;85.326;2022-09-16T11:20:42;12.88;;;7.03;;
69203;SDS011;56317;27.658;85.326;2022-09-16T11:23:29;15.45;;;7.85;;
69203;SDS011;56317;27.658;85.326;2022-09-16T11:26:03;16.42;;;8.05;;
69203;SDS011;56317;27.658;85.326;2022-09-16T11:28:44;15.48;;;8.45;;
69203;SDS011;56317;27.658;85.326;2022-09-16T11:37:16;22.38;;;8.52;;
69203;SDS011;56317;27.658;85.326;2022-09-16T11:42:33;19.25;;;9.25;;
69203;SDS011;56317;27.658;85.326;2022-09-16T11:47:48;17.95;;;8.65;;
69203;SDS011;56317;27.658;85.326;2022-09-16T11:51:01;20.20;;;9.52;;
69203;SDS011;56317;27.658;85.326;2022-09-16T11:56:42;19.48;;;9.10;;
69203;SDS011;56317;27.658;85.326;2022-09-16T12:02:00;18.15;;;9.15;;
69203;SDS011;56317;27.658;85.326;2022-09-16T12:04:46;24.00;;;11.95;;
69203;SDS011;56317;27.658;85.326;2022-09-16T12:07:35;23.25;;;10.73;;
69203;SDS011;56317;27.658;85.326;2022-09-16T12:16:01;22.00;;;10.88;;
69203;SDS011;56317;27.658;85.326;2022-09-16T12:21:19;21.83;;;11.13;;
69203;SDS011;56317;27.658;85.326;2022-09-16T12:24:13;18.80;;;11.13;;
69203;SDS011;56317;27.658;85.326;2022-09-16T12:35:33;22.58;;;12.38;;
69203;SDS011;56317;27.658;85.326;2022-09-16T12:38:18;25.45;;;13.02;;
69203;SDS011;56317;27.658;85.326;2022-09-16T12:40:51;31.45;;;15.13;;
69203;SDS011;56317;27.658;85.326;2022-09-16T12:43:32;27.55;;;14.15;;
69203;SDS011;56317;27.658;85.326;2022-09-16T12:54:50;27.17;;;15.75;;
69203;SDS011;56317;27.658;85.326;2022-09-16T13:02:41;33.83;;;17.15;;
69203;SDS011;56317;27.658;85.326;2022-09-16T13:05:19;36.33;;;17.05;;
69203;SDS011;56317;27.658;85.326;2022-09-16T13:07:54;37.40;;;17.50;;
69203;SDS011;56317;27.658;85.326;2022-09-16T13:12:58;47.90;;;19.70;;
69203;SDS011;56317;27.658;85.326;2022-09-16T13:15:32;45.30;;;19.88;;
69203;SDS011;56317;27.658;85.326;2022-09-16T13:20:47;46.88;;;20.70;;
69203;SDS011;56317;27.658;85.326;2022-09-16T13:23:30;35.20;;;18.83;;
69203;SDS011;56317;27.658;85.326;2022-09-16T13:26:02;37.78;;;18.73;;
69203;SDS011;56317;27.658;85.326;2022-09-16T13:28:35;35.20;;;17.75;;
69203;SDS011;56317;27.658;85.326;2022-09-16T13:33:38;30.17;;;17.08;;
69203;SDS011;56317;27.658;85.326;2022-09-16T13:36:13;35.85;;;18.45;;
69203;SDS011;56317;27.658;85.326;2022-09-16T13:38:50;32.35;;;18.52;;
69203;SDS011;56317;27.658;85.326;2022-09-16T13:49:54;24.42;;;14.82;;
69203;SDS011;56317;27.658;85.326;2022-09-16T13:55:03;26.00;;;12.00;;
69203;SDS011;56317;27.658;85.326;2022-09-16T14:00:46;21.02;;;10.27;;
69203;SDS011;56317;27.658;85.326;2022-09-16T14:09:26;18.85;;;10.98;;
69203;SDS011;56317;27.658;85.326;2022-09-16T14:14:37;21.15;;;11.60;;
69203;SDS011;56317;27.658;85.326;2022-09-16T14:17:13;22.00;;;11.27;;
69203;SDS011;56317;27.658;85.326;2022-09-16T14:19:46;30.75;;;12.93;;
69203;SDS011;56317;27.658;85.326;2022-09-16T14:22:17;33.53;;;13.80;;
69203;SDS011;56317;27.658;85.326;2022-09-16T14:24:51;31.77;;;15.35;;
69203;SDS011;56317;27.658;85.326;2022-09-16T14:27:32;35.05;;;16.13;;
69203;SDS011;56317;27.658;85.326;2022-09-16T14:30:04;37.30;;;17.65;;
69203;SDS011;56317;27.658;85.326;2022-09-16T14:32:38;32.65;;;17.45;;
69203;SDS011;56317;27.658;85.326;2022-09-16T14:35:24;30.90;;;17.52;;
69203;SDS011;56317;27.658;85.326;2022-09-16T14:37:59;52.28;;;19.73;;
69203;SDS011;56317;27.658;85.326;2022-09-16T14:40:30;38.15;;;19.70;;
69203;SDS011;56317;27.658;85.326;2022-09-16T14:45:29;41.78;;;18.23;;
69203;SDS011;56317;27.658;85.326;2022-09-16T14:48:00;40.45;;;19.70;;
69203;SDS011;56317;27.658;85.326;2022-09-16T14:50:31;34.28;;;20.15;;
69203;SDS011;56317;27.658;85.326;2022-09-16T14:53:06;35.28;;;19.30;;
69203;SDS011;56317;27.658;85.326;2022-09-16T14:55:50;42.38;;;20.70;;
69203;SDS011;56317;27.658;85.326;2022-09-16T14:58:18;39.42;;;18.65;;
69203;SDS011;56317;27.658;85.326;2022-09-16T15:00:47;40.50;;;19.23;;
69203;SDS011;56317;27.658;85.326;2022-09-16T15:03:36;36.38;;;19.77;;
69203;SDS011;56317;27.658;85.326;2022-09-16T15:06:17;35.25;;;18.77;;
69203;SDS011;56317;27.658;85.326;2022-09-16T15:08:52;63.28;;;34.72;;
69203;SDS011;56317;27.658;85.326;2022-09-16T15:11:43;45.90;;;21.90;;
69203;SDS011;56317;27.658;85.326;2022-09-16T15:14:16;55.78;;;26.95;;
69203;SDS011;56317;27.658;85.326;2022-09-16T15:16:45;49.33;;;25.65;;
69203;SDS011;56317;27.658;85.326;2022-09-16T15:19:20;49.20;;;25.30;;
69203;SDS011;56317;27.658;85.326;2022-09-16T15:21:49;39.15;;;20.67;;
69203;SDS011;56317;27.658;85.326;2022-09-16T15:24:21;34.78;;;17.83;;
69203;SDS011;56317;27.658;85.326;2022-09-16T15:26:52;36.58;;;18.17;;
69203;SDS011;56317;27.658;85.326;2022-09-16T15:31:50;34.35;;;18.35;;
69203;SDS011;56317;27.658;85.326;2022-09-16T15:36:48;41.63;;;19.73;;
69203;SDS011;56317;27.658;85.326;2022-09-16T15:42:10;39.90;;;18.23;;
69203;SDS011;56317;27.658;85.326;2022-09-16T15:47:23;36.72;;;19.45;;
69203;SDS011;56317;27.658;85.326;2022-09-16T15:49:53;42.08;;;20.40;;
69203;SDS011;56317;27.658;85.326;2022-09-16T15:52:30;46.55;;;20.90;;
69203;SDS011;56317;27.658;85.326;2022-09-16T15:55:01;41.38;;;18.50;;
69203;SDS011;56317;27.658;85.326;2022-09-16T15:57:32;44.28;;;19.38;;
69203;SDS011;56317;27.658;85.326;2022-09-16T16:00:04;40.35;;;19.58;;
69203;SDS011;56317;27.658;85.326;2022-09-16T16:02:40;53.58;;;22.33;;
69203;SDS011;56317;27.658;85.326;2022-09-16T16:05:17;46.13;;;20.25;;
69203;SDS011;56317;27.658;85.326;2022-09-16T16:07:53;43.40;;;20.20;;
69203;SDS011;56317;27.658;85.326;2022-09-16T16:10:31;37.63;;;18.27;;
69203;SDS011;56317;27.658;85.326;2022-09-16T16:13:02;48.28;;;21.85;;
69203;SDS011;56317;27.658;85.326;2022-09-16T16:15:49;42.75;;;20.00;;
69203;SDS011;56317;27.658;85.326;2022-09-16T16:18:16;37.35;;;18.13;;
69203;SDS011;56317;27.658;85.326;2022-09-16T16:20:44;43.80;;;21.38;;
69203;SDS011;56317;27.658;85.326;2022-09-16T16:23:11;42.28;;;21.50;;
69203;SDS011;56317;27.658;85.326;2022-09-16T16:25:39;47.17;;;21.98;;
69203;SDS011;56317;27.658;85.326;2022-09-16T16:28:06;44.90;;;21.80;;
69203;SDS011;56317;27.658;85.326;2022-09-16T16:30:33;41.28;;;19.30;;
69203;SDS011;56317;27.658;85.326;2022-09-16T16:33:00;40.05;;;20.60;;
69203;SDS011;56317;27.658;85.326;2022-09-16T16:35:27;39.90;;;20.45;;
69203;SDS011;56317;27.658;85.326;2022-09-16T16:37:54;35.97;;;18.63;;
69203;SDS011;56317;27.658;85.326;2022-09-16T16:40:22;40.83;;;18.73;;
69203;SDS011;56317;27.658;85.326;2022-09-16T16:42:49;39.88;;;19.90;;
69203;SDS011;56317;27.658;85.326;2022-09-16T16:45:16;39.08;;;18.45;;
69203;SDS011;56317;27.658;85.326;2022-09-16T16:47:43;45.40;;;20.02;;
69203;SDS011;56317;27.658;85.326;2022-09-16T16:50:11;39.60;;;18.58;;
69203;SDS011;56317;27.658;85.326;2022-09-16T16:52:38;42.85;;;20.13;;
69203;SDS011;56317;27.658;85.326;2022-09-16T16:55:05;41.58;;;18.92;;
69203;SDS011;56317;27.658;85.326;2022-09-16T16:57:32;44.22;;;19.00;;
69203;SDS011;56317;27.658;85.326;2022-09-16T17:00:00;41.05;;;18.95;;
69203;SDS011;56317;27.658;85.326;2022-09-16T17:02:27;50.95;;;21.67;;
69203;SDS011;56317;27.658;85.326;2022-09-16T17:04:54;49.35;;;22.42;;
69203;SDS011;56317;27.658;85.326;2022-09-16T17:07:21;64.25;;;25.67;;
69203;SDS011;56317;27.658;85.326;2022-09-16T17:09:49;73.85;;;27.67;;
69203;SDS011;56317;27.658;85.326;2022-09-16T17:12:16;64.32;;;25.27;;
69203;SDS011;56317;27.658;85.326;2022-09-16T17:14:43;55.17;;;22.92;;
69203;SDS011;56317;27.658;85.326;2022-09-16T17:17:10;41.00;;;19.73;;
69203;SDS011;56317;27.658;85.326;2022-09-16T17:19:37;45.40;;;18.65;;
69203;SDS011;56317;27.658;85.326;2022-09-16T17:22:05;38.72;;;17.92;;
69203;SDS011;56317;27.658;85.326;2022-09-16T17:24:32;41.50;;;19.15;;
69203;SDS011;56317;27.658;85.326;2022-09-16T17:26:59;40.08;;;19.58;;
69203;SDS011;56317;27.658;85.326;2022-09-16T17:29:26;38.95;;;17.63;;
69203;SDS011;56317;27.658;85.326;2022-09-16T17:31:53;41.97;;;19.45;;
69203;SDS011;56317;27.658;85.326;2022-09-16T17:34:21;42.33;;;19.58;;
69203;SDS011;56317;27.658;85.326;2022-09-16T17:36:50;37.00;;;18.23;;
69203;SDS011;56317;27.658;85.326;2022-09-16T17:39:18;42.72;;;19.27;;
69203;SDS011;56317;27.658;85.326;2022-09-16T17:41:46;39.88;;;18.33;;
69203;SDS011;56317;27.658;85.326;2022-09-16T17:44:15;39.90;;;19.38;;
69203;SDS011;56317;27.658;85.326;2022-09-16T17:46:43;40.28;;;19.35;;
69203;SDS011;56317;27.658;85.326;2022-09-16T17:49:21;45.08;;;18.45;;
69203;SDS011;56317;27.658;85.326;2022-09-16T17:51:49;48.97;;;20.70;;